createdAt,value
2023-05-19T00:00:37.202Z,6.20
2023-05-19T00:03:05.063Z,6.13
2023-05-19T00:05:32.284Z,6.01
2023-05-19T00:08:01.180Z,5.90
2023-05-19T00:10:31.633Z,6.01
2023-05-19T00:12:59.073Z,5.90
2023-05-19T00:15:26.016Z,5.83
2023-05-19T00:17:55.319Z,5.66
2023-05-19T00:20:22.480Z,5.65
2023-05-19T00:22:49.285Z,5.78
2023-05-19T00:25:16.116Z,5.63
2023-05-19T00:27:42.954Z,5.56
2023-05-19T00:30:09.793Z,5.51
2023-05-19T00:32:36.514Z,5.69
2023-05-19T00:35:03.319Z,5.74
2023-05-19T00:37:30.014Z,5.58
2023-05-19T00:39:56.768Z,5.48
2023-05-19T00:42:23.597Z,5.62
2023-05-19T00:44:50.404Z,5.65
2023-05-19T00:47:17.089Z,5.70
2023-05-19T00:49:43.753Z,5.76
2023-05-19T00:52:10.827Z,5.72
2023-05-19T00:54:37.526Z,5.60
2023-05-19T00:57:04.413Z,5.51
2023-05-19T00:59:31.159Z,5.52
2023-05-19T01:01:58.094Z,5.49
2023-05-19T01:04:25.630Z,5.45
2023-05-19T01:06:55.876Z,5.57
2023-05-19T01:09:24.381Z,5.52
2023-05-19T01:11:51.069Z,5.37
2023-05-19T01:14:22.052Z,5.35
2023-05-19T01:17:05.452Z,5.25
2023-05-19T01:20:02.218Z,5.19
2023-05-19T01:23:00.343Z,5.13
2023-05-19T01:25:59.458Z,5.05
2023-05-19T01:28:43.658Z,5.06
2023-05-19T01:31:12.088Z,5.02
2023-05-19T01:33:41.549Z,4.97
2023-05-19T01:36:10.338Z,5.06
2023-05-19T01:38:38.400Z,5.02
2023-05-19T01:41:10.145Z,4.99
2023-05-19T01:43:37.238Z,4.98
2023-05-19T01:46:05.595Z,4.99
2023-05-19T01:48:34.859Z,5.01
2023-05-19T01:51:01.705Z,4.79
2023-05-19T01:53:28.544Z,4.61
2023-05-19T01:55:56.833Z,4.60
2023-05-19T01:58:32.778Z,4.66
2023-05-19T02:01:11.073Z,4.72
2023-05-19T02:03:59.145Z,4.85
2023-05-19T02:06:40.710Z,4.83
2023-05-19T02:09:22.246Z,4.83
2023-05-19T02:12:03.096Z,4.85
2023-05-19T02:14:34.213Z,4.82
2023-05-19T02:17:03.328Z,4.81
2023-05-19T02:19:36.913Z,4.84
2023-05-19T02:22:03.712Z,4.78
2023-05-19T02:24:30.535Z,4.81
2023-05-19T02:26:57.223Z,4.67
2023-05-19T02:29:23.899Z,4.41
2023-05-19T02:31:50.941Z,4.38
2023-05-19T02:34:17.745Z,4.37
2023-05-19T02:36:44.660Z,4.48
2023-05-19T02:39:11.993Z,4.50
2023-05-19T02:41:39.378Z,4.55
2023-05-19T02:44:06.181Z,4.37
2023-05-19T02:46:33.106Z,4.40
2023-05-19T02:49:03.013Z,4.42
2023-05-19T02:51:29.845Z,4.42
2023-05-19T02:53:56.647Z,4.31
2023-05-19T02:56:23.430Z,4.41
2023-05-19T02:58:50.751Z,4.37
2023-05-19T03:01:17.641Z,4.39
2023-05-19T03:03:44.446Z,4.40
2023-05-19T03:06:11.294Z,4.37
2023-05-19T03:08:39.395Z,4.30
2023-05-19T03:11:08.351Z,4.22
2023-05-19T03:13:35.652Z,4.22
2023-05-19T03:16:03.931Z,4.27
2023-05-19T03:18:30.764Z,4.28
2023-05-19T03:20:57.556Z,4.32
2023-05-19T03:23:24.286Z,4.37
2023-05-19T03:25:56.721Z,4.42
2023-05-19T03:28:23.501Z,4.55
2023-05-19T03:30:50.873Z,4.49
2023-05-19T03:33:17.909Z,4.51
2023-05-19T03:35:44.836Z,4.59
2023-05-19T03:38:11.731Z,4.76
2023-05-19T03:40:38.823Z,4.87
2023-05-19T03:43:05.568Z,4.96
2023-05-19T03:45:35.618Z,5.01
2023-05-19T03:48:03.879Z,5.08
2023-05-19T03:50:31.703Z,5.06
2023-05-19T03:52:58.687Z,5.13
2023-05-19T03:55:25.857Z,5.21
2023-05-19T03:57:54.169Z,5.30
2023-05-19T04:00:20.966Z,5.55
2023-05-19T04:02:47.868Z,5.93
2023-05-19T04:05:14.830Z,6.02
2023-05-19T04:07:41.704Z,5.72
2023-05-19T04:10:08.856Z,5.72
2023-05-19T04:12:35.641Z,5.78
2023-05-19T04:15:02.431Z,5.84
2023-05-19T04:17:29.443Z,5.94
2023-05-19T04:19:56.210Z,6.10
2023-05-19T04:22:23.008Z,6.20
2023-05-19T04:24:51.710Z,6.28
2023-05-19T04:27:22.955Z,6.07
2023-05-19T04:29:50.043Z,6.13
2023-05-19T04:32:19.483Z,6.41
2023-05-19T04:34:46.268Z,6.50
2023-05-19T04:37:14.154Z,6.68
2023-05-19T04:39:45.285Z,6.54
2023-05-19T04:42:13.370Z,6.63
2023-05-19T04:44:40.407Z,6.58
2023-05-19T04:47:08.915Z,6.72
2023-05-19T04:49:38.956Z,6.89
2023-05-19T04:52:11.022Z,6.98
2023-05-19T04:54:38.992Z,7.10
2023-05-19T04:57:06.165Z,7.21
2023-05-19T04:59:33.100Z,7.34
2023-05-19T05:01:59.989Z,7.46
2023-05-19T05:04:26.875Z,7.58
2023-05-19T05:06:53.617Z,7.77
2023-05-19T05:09:22.569Z,7.87
2023-05-19T05:11:49.515Z,8.00
2023-05-19T05:14:16.557Z,8.26
2023-05-19T05:16:43.685Z,8.34
2023-05-19T05:19:10.814Z,8.28
2023-05-19T05:21:37.764Z,8.37
2023-05-19T05:24:04.776Z,8.53
2023-05-19T05:26:33.934Z,8.67
2023-05-19T05:29:00.783Z,8.82
2023-05-19T05:31:27.851Z,9.03
2023-05-19T05:33:54.610Z,9.20
2023-05-19T05:36:21.692Z,9.25
2023-05-19T05:38:49.106Z,9.31
2023-05-19T05:41:16.070Z,9.33
2023-05-19T05:43:42.801Z,9.37
2023-05-19T05:46:09.596Z,9.59
2023-05-19T05:48:36.705Z,9.73
2023-05-19T05:51:03.877Z,9.86
2023-05-19T05:53:32.299Z,10.00
2023-05-19T05:55:59.291Z,10.15
2023-05-19T05:58:26.039Z,10.26
2023-05-19T06:00:53.477Z,10.46
2023-05-19T06:03:24.591Z,10.66
2023-05-19T06:05:51.594Z,10.80
2023-05-19T06:08:18.442Z,10.89
2023-05-19T06:10:47.261Z,11.20
2023-05-19T06:13:16.324Z,11.46
2023-05-19T06:15:43.082Z,11.56
2023-05-19T06:18:09.914Z,12.05
2023-05-19T06:20:36.690Z,11.93
2023-05-19T06:23:03.820Z,12.07
2023-05-19T06:25:30.770Z,13.50
2023-05-19T06:27:57.652Z,14.12
2023-05-19T06:30:24.361Z,13.90
2023-05-19T06:32:51.307Z,14.62
2023-05-19T06:35:18.023Z,13.91
2023-05-19T06:37:44.802Z,13.87
2023-05-19T06:40:12.337Z,14.28
2023-05-19T06:42:40.142Z,14.17
2023-05-19T06:45:07.540Z,13.34
2023-05-19T06:47:34.261Z,14.68
2023-05-19T06:50:01.092Z,15.84
2023-05-19T06:52:34.203Z,15.22
2023-05-19T06:55:00.992Z,15.37
2023-05-19T06:57:27.665Z,15.26
2023-05-19T06:59:54.418Z,14.88
2023-05-19T07:02:21.072Z,14.30
2023-05-19T07:04:47.773Z,14.30
2023-05-19T07:07:14.556Z,14.91
2023-05-19T07:09:41.355Z,15.44
2023-05-19T07:12:08.036Z,15.40
2023-05-19T07:14:36.504Z,15.25
2023-05-19T07:17:03.375Z,15.02
2023-05-19T07:19:30.165Z,14.24
2023-05-19T07:21:59.557Z,14.23
2023-05-19T07:24:27.528Z,14.36
2023-05-19T07:26:54.322Z,13.97
2023-05-19T07:29:21.024Z,14.50
2023-05-19T07:31:47.916Z,14.38
2023-05-19T07:34:14.614Z,14.44
2023-05-19T07:36:41.569Z,14.49
2023-05-19T07:39:09.545Z,14.46
2023-05-19T07:41:36.594Z,14.50
2023-05-19T07:44:07.532Z,14.80
2023-05-19T07:46:37.883Z,15.07
2023-05-19T07:49:04.751Z,15.18
2023-05-19T07:51:31.818Z,15.26
2023-05-19T07:53:58.631Z,15.21
2023-05-19T07:56:25.404Z,15.33
2023-05-19T07:58:52.103Z,14.97
2023-05-19T08:01:18.953Z,15.23
2023-05-19T08:03:45.817Z,14.78
2023-05-19T08:06:12.598Z,14.71
2023-05-19T08:08:39.528Z,14.76
2023-05-19T08:11:06.682Z,15.10
2023-05-19T08:13:34.683Z,15.28
2023-05-19T08:16:02.333Z,15.45
2023-05-19T08:18:29.431Z,15.32
2023-05-19T08:20:56.361Z,15.75
2023-05-19T08:23:23.044Z,15.77
2023-05-19T08:25:49.724Z,15.68
2023-05-19T08:28:16.672Z,15.83
2023-05-19T08:30:43.628Z,15.91
2023-05-19T08:33:10.719Z,16.06
2023-05-19T08:35:38.001Z,15.81
2023-05-19T08:38:04.743Z,15.83
2023-05-19T08:40:33.614Z,15.29
2023-05-19T08:43:00.652Z,15.91
2023-05-19T08:45:27.852Z,16.06
2023-05-19T08:47:54.792Z,15.75
2023-05-19T08:50:29.060Z,15.73
2023-05-19T08:53:25.034Z,16.22
2023-05-19T08:56:14.343Z,16.51
2023-05-19T08:58:44.002Z,16.15
2023-05-19T09:01:14.561Z,16.32
2023-05-19T09:03:42.970Z,16.82
2023-05-19T09:06:13.666Z,17.00
2023-05-19T09:08:42.550Z,16.51
2023-05-19T09:11:10.139Z,16.60
2023-05-19T09:13:37.058Z,16.76
2023-05-19T09:16:03.997Z,16.61
2023-05-19T09:18:31.498Z,16.21
2023-05-19T09:21:00.635Z,16.42
2023-05-19T09:23:29.887Z,16.32
2023-05-19T09:25:57.448Z,16.27
2023-05-19T09:28:29.479Z,16.86
2023-05-19T09:31:14.460Z,16.15
2023-05-19T09:33:45.533Z,16.19
2023-05-19T09:36:12.843Z,16.83
2023-05-19T09:38:40.051Z,16.59
2023-05-19T09:41:10.431Z,16.93
2023-05-19T09:43:37.184Z,17.10
2023-05-19T09:46:08.116Z,16.80
2023-05-19T09:48:36.457Z,16.85
2023-05-19T09:51:10.239Z,17.06
2023-05-19T09:53:37.029Z,16.93
2023-05-19T09:56:04.196Z,16.86
2023-05-19T09:58:35.346Z,17.35
2023-05-19T10:01:03.689Z,17.40
2023-05-19T10:03:35.597Z,17.18
2023-05-19T10:06:07.039Z,17.41
2023-05-19T10:08:34.500Z,17.43
2023-05-19T10:11:02.100Z,17.73
2023-05-19T10:13:29.737Z,17.82
2023-05-19T10:15:59.625Z,17.71
2023-05-19T10:18:30.262Z,17.42
2023-05-19T10:20:58.066Z,17.29
2023-05-19T10:23:25.784Z,17.30
2023-05-19T10:25:57.600Z,17.31
2023-05-19T10:28:28.429Z,17.69
2023-05-19T10:31:00.440Z,18.23
2023-05-19T10:33:51.439Z,17.99
2023-05-19T10:36:26.999Z,17.54
2023-05-19T10:39:01.057Z,17.42
2023-05-19T10:42:04.127Z,17.37
2023-05-19T10:45:04.941Z,17.87
2023-05-19T10:47:32.523Z,17.63
2023-05-19T10:50:01.335Z,17.78
2023-05-19T10:52:30.956Z,17.86
2023-05-19T10:54:58.274Z,17.65
2023-05-19T10:57:28.552Z,17.67
2023-05-19T10:59:57.203Z,17.73
2023-05-19T11:02:44.122Z,17.69
2023-05-19T11:05:14.270Z,17.32
2023-05-19T11:07:42.829Z,17.37
2023-05-19T11:10:10.120Z,17.57
2023-05-19T11:12:45.853Z,17.40
2023-05-19T11:15:15.177Z,17.51
2023-05-19T11:17:43.273Z,17.67
2023-05-19T11:20:22.900Z,17.91
2023-05-19T11:23:18.480Z,17.84
2023-05-19T11:25:50.103Z,18.31
2023-05-19T11:28:25.654Z,18.00
2023-05-19T11:30:55.290Z,18.16
2023-05-19T11:33:27.140Z,17.81
2023-05-19T11:35:58.103Z,17.97
2023-05-19T11:38:25.421Z,18.20
2023-05-19T11:40:56.327Z,17.92
2023-05-19T11:43:24.713Z,17.87
2023-05-19T11:45:52.131Z,17.78
2023-05-19T11:48:21.665Z,18.23
2023-05-19T11:50:48.760Z,18.33
2023-05-19T11:53:19.858Z,18.50
2023-05-19T11:55:48.104Z,18.07
2023-05-19T11:58:15.907Z,18.08
2023-05-19T12:00:46.302Z,17.89
2023-05-19T12:03:13.489Z,17.56
2023-05-19T12:05:47.823Z,17.35
2023-05-19T12:08:17.806Z,17.47
2023-05-19T12:10:48.406Z,17.37
2023-05-19T12:13:15.189Z,17.35
2023-05-19T12:15:41.928Z,17.50
2023-05-19T12:18:08.770Z,17.33
2023-05-19T12:20:36.157Z,17.76
2023-05-19T12:23:04.097Z,18.00
2023-05-19T12:25:32.090Z,18.03
2023-05-19T12:28:00.387Z,18.22
2023-05-19T12:30:32.810Z,18.46
2023-05-19T12:33:01.889Z,18.59
2023-05-19T12:35:32.110Z,18.49
2023-05-19T12:38:04.168Z,18.59
2023-05-19T12:40:31.164Z,18.60
2023-05-19T12:42:59.331Z,18.78
2023-05-19T12:45:28.336Z,18.65
2023-05-19T12:47:56.130Z,18.49
2023-05-19T12:50:31.037Z,18.06
2023-05-19T12:52:59.729Z,18.08
2023-05-19T12:55:26.581Z,18.49
2023-05-19T12:57:59.303Z,18.51
2023-05-19T13:00:28.998Z,18.46
2023-05-19T13:03:08.411Z,17.89
2023-05-19T13:05:40.114Z,17.69
2023-05-19T13:08:09.157Z,17.75
2023-05-19T13:10:38.415Z,17.59
2023-05-19T13:13:06.010Z,17.79
2023-05-19T13:15:35.369Z,17.91
2023-05-19T13:18:03.891Z,18.14
2023-05-19T13:20:30.953Z,17.78
2023-05-19T13:22:57.862Z,17.90
2023-05-19T13:25:24.897Z,18.01
2023-05-19T13:27:51.638Z,17.68
2023-05-19T13:30:19.280Z,17.87
2023-05-19T13:32:46.099Z,17.65
2023-05-19T13:35:16.409Z,17.27
2023-05-19T13:37:43.527Z,17.23
2023-05-19T13:40:11.263Z,17.27
2023-05-19T13:42:38.354Z,17.31
2023-05-19T13:45:05.785Z,17.20
2023-05-19T13:47:32.633Z,17.77
2023-05-19T13:50:02.546Z,17.79
2023-05-19T13:52:30.494Z,17.52
2023-05-19T13:54:57.688Z,17.86
2023-05-19T13:57:25.537Z,17.88
2023-05-19T14:00:01.807Z,17.92
2023-05-19T14:02:30.011Z,17.95
2023-05-19T14:04:57.519Z,17.89
2023-05-19T14:07:24.320Z,18.03
2023-05-19T14:09:52.354Z,18.06
2023-05-19T14:12:20.183Z,17.63
2023-05-19T14:14:49.088Z,17.47
2023-05-19T14:17:15.907Z,17.45
2023-05-19T14:19:42.845Z,17.67
2023-05-19T14:22:09.567Z,17.70
2023-05-19T14:24:36.275Z,17.84
2023-05-19T14:27:02.957Z,17.68
2023-05-19T14:29:31.125Z,17.61
2023-05-19T14:31:58.086Z,17.42
2023-05-19T14:34:24.955Z,17.29
2023-05-19T14:36:51.921Z,17.18
2023-05-19T14:39:18.751Z,17.12
2023-05-19T14:41:45.537Z,17.27
2023-05-19T14:44:12.197Z,17.23
2023-05-19T14:46:38.966Z,17.48
2023-05-19T14:49:06.532Z,17.42
2023-05-19T14:51:33.416Z,17.45
2023-05-19T14:54:02.214Z,17.78
2023-05-19T14:56:30.314Z,17.90
2023-05-19T14:58:56.988Z,17.79
2023-05-19T15:01:23.768Z,17.85
2023-05-19T15:03:50.573Z,17.87
2023-05-19T15:06:17.253Z,17.86
2023-05-19T15:08:44.447Z,17.93
2023-05-19T15:11:11.143Z,17.92
2023-05-19T15:13:37.956Z,17.58
2023-05-19T15:16:16.167Z,17.55
2023-05-19T15:18:44.700Z,17.39
2023-05-19T15:21:11.646Z,17.35
2023-05-19T15:23:38.335Z,17.56
2023-05-19T15:26:05.131Z,17.37
2023-05-19T15:28:32.305Z,17.21
2023-05-19T15:30:59.230Z,17.17
2023-05-19T15:33:26.400Z,17.03
2023-05-19T15:35:53.308Z,17.04
2023-05-19T15:38:20.423Z,17.02
2023-05-19T15:40:47.233Z,16.96
2023-05-19T15:43:14.239Z,16.92
2023-05-19T15:45:41.233Z,17.07
2023-05-19T15:48:08.379Z,17.09
2023-05-19T15:50:35.782Z,17.10
2023-05-19T15:53:02.794Z,16.99
2023-05-19T15:55:29.572Z,17.05
2023-05-19T15:57:56.352Z,17.12
2023-05-19T16:00:23.667Z,16.89
2023-05-19T16:02:50.646Z,16.93
2023-05-19T16:05:19.777Z,16.80
2023-05-19T16:07:46.479Z,16.75
2023-05-19T16:10:15.788Z,16.69
2023-05-19T16:12:42.487Z,16.98
2023-05-19T16:15:09.706Z,17.01
2023-05-19T16:17:36.437Z,17.16
2023-05-19T16:20:03.959Z,17.02
2023-05-19T16:22:30.601Z,17.17
2023-05-19T16:24:57.323Z,16.94
2023-05-19T16:27:24.131Z,16.74
2023-05-19T16:29:51.296Z,16.85
2023-05-19T16:32:17.979Z,16.78
2023-05-19T16:34:44.673Z,16.90
2023-05-19T16:37:11.329Z,16.84
2023-05-19T16:39:38.122Z,16.86
2023-05-19T16:42:06.455Z,16.78
2023-05-19T16:44:33.258Z,16.92
2023-05-19T16:47:00.026Z,16.71
2023-05-19T16:49:26.780Z,16.71
2023-05-19T16:51:54.215Z,16.60
2023-05-19T16:54:21.382Z,16.54
2023-05-19T16:56:48.136Z,16.47
2023-05-19T16:59:14.953Z,16.48
2023-05-19T17:01:41.858Z,16.57
2023-05-19T17:04:09.555Z,16.56
2023-05-19T17:06:36.346Z,16.41
2023-05-19T17:09:03.798Z,16.38
2023-05-19T17:11:30.722Z,16.34
2023-05-19T17:13:59.248Z,16.46
2023-05-19T17:16:27.335Z,16.44
2023-05-19T17:18:54.132Z,16.17
2023-05-19T17:21:22.063Z,16.24
2023-05-19T17:23:50.080Z,16.07
2023-05-19T17:26:17.134Z,16.00
2023-05-19T17:28:43.873Z,16.13
2023-05-19T17:31:14.446Z,16.02
2023-05-19T17:33:41.611Z,15.94
2023-05-19T17:36:09.011Z,16.03
2023-05-19T17:38:40.050Z,15.79
2023-05-19T17:41:10.936Z,16.08
2023-05-19T17:43:38.305Z,15.77
2023-05-19T17:46:05.538Z,15.88
2023-05-19T17:48:32.938Z,15.91
2023-05-19T17:51:00.607Z,15.72
2023-05-19T17:53:27.693Z,15.62
2023-05-19T17:55:59.705Z,15.59
2023-05-19T17:58:27.069Z,15.53
2023-05-19T18:00:54.894Z,15.50
2023-05-19T18:03:24.913Z,15.27
2023-05-19T18:05:51.973Z,15.38
2023-05-19T18:08:19.139Z,15.27
2023-05-19T18:10:49.409Z,15.27
2023-05-19T18:13:16.151Z,15.26
2023-05-19T18:15:42.994Z,15.23
2023-05-19T18:18:10.927Z,15.21
2023-05-19T18:20:44.213Z,15.22
2023-05-19T18:23:11.358Z,15.18
2023-05-19T18:25:38.172Z,15.15
2023-05-19T18:28:06.026Z,15.19
2023-05-19T18:30:36.153Z,15.21
2023-05-19T18:33:03.926Z,15.38
2023-05-19T18:35:31.072Z,15.48
2023-05-19T18:37:57.817Z,15.56
2023-05-19T18:40:27.622Z,15.45
2023-05-19T18:42:54.918Z,15.67
2023-05-19T18:45:21.606Z,15.61
2023-05-19T18:47:48.426Z,15.51
2023-05-19T18:50:15.339Z,15.48
2023-05-19T18:52:41.987Z,15.32
2023-05-19T18:55:09.318Z,15.18
2023-05-19T18:57:36.116Z,14.85
2023-05-19T19:00:04.324Z,14.62
2023-05-19T19:02:31.367Z,14.31
2023-05-19T19:05:01.535Z,14.38
2023-05-19T19:07:28.420Z,14.33
2023-05-19T19:09:55.112Z,14.32
2023-05-19T19:12:21.833Z,14.04
2023-05-19T19:14:48.639Z,13.94
2023-05-19T19:17:15.429Z,13.85
2023-05-19T19:19:42.542Z,13.90
2023-05-19T19:22:09.375Z,13.85
2023-05-19T19:24:36.119Z,13.95
2023-05-19T19:27:05.434Z,13.69
2023-05-19T19:29:32.086Z,13.75
2023-05-19T19:31:58.944Z,13.65
2023-05-19T19:34:25.737Z,13.81
2023-05-19T19:36:54.546Z,13.68
2023-05-19T19:39:21.197Z,13.56
2023-05-19T19:41:47.952Z,13.56
2023-05-19T19:44:14.699Z,13.43
2023-05-19T19:46:41.520Z,13.36
2023-05-19T19:49:10.945Z,13.30
2023-05-19T19:51:37.641Z,13.25
2023-05-19T19:54:07.220Z,13.21
2023-05-19T19:56:33.995Z,13.21
2023-05-19T19:59:01.471Z,13.28
2023-05-19T20:01:28.298Z,13.29
2023-05-19T20:03:57.682Z,13.19
2023-05-19T20:06:24.576Z,13.12
2023-05-19T20:08:51.327Z,13.18
2023-05-19T20:11:18.436Z,13.04
2023-05-19T20:13:45.114Z,13.07
2023-05-19T20:16:32.511Z,12.97
2023-05-19T20:18:59.447Z,12.98
2023-05-19T20:21:26.404Z,12.89
2023-05-19T20:23:53.347Z,12.77
2023-05-19T20:26:20.650Z,12.82
2023-05-19T20:28:50.732Z,12.69
2023-05-19T20:31:18.042Z,12.85
2023-05-19T20:33:45.213Z,12.75
2023-05-19T20:36:12.463Z,12.67
2023-05-19T20:38:39.184Z,12.74
2023-05-19T20:41:06.065Z,12.76
2023-05-19T20:43:33.316Z,12.79
2023-05-19T20:46:01.448Z,12.53
2023-05-19T20:48:28.294Z,12.52
2023-05-19T20:50:55.032Z,12.53
2023-05-19T20:53:22.072Z,12.61
2023-05-19T20:55:48.884Z,12.50
2023-05-19T20:58:18.035Z,12.48
2023-05-19T21:00:44.812Z,12.38
2023-05-19T21:03:11.869Z,12.53
2023-05-19T21:05:38.729Z,12.48
2023-05-19T21:08:05.542Z,12.38
2023-05-19T21:10:32.544Z,12.34
2023-05-19T21:12:59.679Z,12.28
2023-05-19T21:15:27.221Z,12.33
2023-05-19T21:17:54.090Z,12.33
2023-05-19T21:20:21.074Z,12.32
2023-05-19T21:22:48.077Z,12.12
2023-05-19T21:25:16.976Z,12.28
2023-05-19T21:27:46.039Z,12.06
2023-05-19T21:30:13.877Z,12.13
2023-05-19T21:32:40.853Z,12.05
2023-05-19T21:35:08.141Z,12.01
2023-05-19T21:37:35.029Z,11.88
2023-05-19T21:40:01.914Z,11.86
2023-05-19T21:42:29.016Z,11.98
2023-05-19T21:44:57.596Z,11.81
2023-05-19T21:47:24.346Z,11.75
2023-05-19T21:49:51.108Z,11.77
2023-05-19T21:52:19.160Z,11.70
2023-05-19T21:54:45.921Z,11.44
2023-05-19T21:57:12.723Z,11.59
2023-05-19T21:59:39.540Z,11.61
2023-05-19T22:02:06.558Z,11.42
2023-05-19T22:04:33.662Z,11.57
2023-05-19T22:07:00.610Z,11.37
2023-05-19T22:09:30.405Z,11.34
2023-05-19T22:11:57.151Z,11.27
2023-05-19T22:14:23.889Z,11.38
2023-05-19T22:16:50.816Z,11.20
2023-05-19T22:19:18.176Z,11.22
2023-05-19T22:21:45.172Z,11.20
2023-05-19T22:24:11.958Z,11.28
2023-05-19T22:26:42.828Z,11.46
2023-05-19T22:29:14.939Z,11.36
2023-05-19T22:31:42.139Z,11.19
2023-05-19T22:34:08.960Z,11.12
2023-05-19T22:36:35.992Z,11.06
2023-05-19T22:39:03.865Z,11.13
2023-05-19T22:41:30.734Z,11.03
2023-05-19T22:43:57.511Z,10.90
2023-05-19T22:46:24.352Z,10.68
2023-05-19T22:48:51.161Z,10.50
2023-05-19T22:51:18.825Z,10.51
2023-05-19T22:53:46.772Z,10.38
2023-05-19T22:56:13.478Z,10.20
2023-05-19T22:58:40.307Z,9.97
2023-05-19T23:01:07.083Z,9.85
2023-05-19T23:03:33.912Z,9.58
2023-05-19T23:06:00.956Z,9.43
2023-05-19T23:08:27.859Z,9.34
2023-05-19T23:10:59.914Z,9.28
2023-05-19T23:13:26.649Z,9.14
2023-05-19T23:15:53.427Z,9.03
2023-05-19T23:18:20.167Z,8.84
2023-05-19T23:20:46.954Z,8.83
2023-05-19T23:23:13.663Z,8.63
2023-05-19T23:25:40.498Z,8.64
2023-05-19T23:28:10.177Z,8.59
2023-05-19T23:30:38.076Z,8.69
2023-05-19T23:33:04.969Z,8.56
2023-05-19T23:35:32.029Z,8.54
2023-05-19T23:37:58.940Z,8.28
2023-05-19T23:40:25.740Z,8.22
2023-05-19T23:42:52.471Z,8.22
2023-05-19T23:45:19.401Z,8.24
2023-05-19T23:47:46.257Z,8.27
2023-05-19T23:50:13.103Z,8.38
2023-05-19T23:52:39.833Z,8.38
2023-05-19T23:55:07.462Z,8.51
2023-05-19T23:57:34.162Z,8.58
